Ujfeherto, Hungary
Current Conditions -  °F | °C
As of 1:45 PM on Friday 19 Dec 2014 (Local Time) from LHDC Reporting Station
Broken Clouds Broken Clouds  
Wind Chill: 38°   Ceiling: 8300
Heat Index: 45°   Visibility: 5mi
Dew Point: 41°   Wind: 14mph
Humidity: 87%   Direction: 200°SSW
Pressure: 30.06"   Gusts: NA
Location:  47.8°N, 21.68°E
Report Text: LHDC 191145Z 20012KT 8000 SCT006 BKN083 07/05 Q1018 NOSIG
Loading
Personal Weather Stations






























Interactive Weather Map New forecast layout! Learn more

10-Day Weather Forecast

Advertisements
Track Severe Weather on mobile